sensor_id;sensor_type;location;lat;lon;timestamp;temperature;humidity
9544;DHT22;30418;51.45933468;7.33152330;2023-12-20T00:02:00;10.50;78.30
9544;DHT22;30418;51.45933468;7.33152330;2023-12-20T00:04:31;10.50;78.30
9544;DHT22;30418;51.45933468;7.33152330;2023-12-20T00:07:00;10.50;78.40
9544;DHT22;30418;51.45933468;7.33152330;2023-12-20T00:09:29;10.50;78.50
9544;DHT22;30418;51.45933468;7.33152330;2023-12-20T00:11:57;10.50;78.50
9544;DHT22;30418;51.45933468;7.33152330;2023-12-20T00:14:26;10.50;78.50
9544;DHT22;30418;51.45933468;7.33152330;2023-12-20T00:16:54;10.50;78.50
9544;DHT22;30418;51.45933468;7.33152330;2023-12-20T00:19:22;10.50;78.60
9544;DHT22;30418;51.45933468;7.33152330;2023-12-20T00:21:52;10.50;78.50
9544;DHT22;30418;51.45933468;7.33152330;2023-12-20T00:24:21;10.50;78.50
9544;DHT22;30418;51.45933468;7.33152330;2023-12-20T00:26:50;10.50;78.50
9544;DHT22;30418;51.45933468;7.33152330;2023-12-20T00:29:18;10.50;78.50
9544;DHT22;30418;51.45933468;7.33152330;2023-12-20T00:31:47;10.40;78.30
9544;DHT22;30418;51.45933468;7.33152330;2023-12-20T00:34:15;10.50;78.50
9544;DHT22;30418;51.45933468;7.33152330;2023-12-20T00:36:44;10.50;78.40
9544;DHT22;30418;51.45933468;7.33152330;2023-12-20T00:39:14;10.50;78.40
9544;DHT22;30418;51.45933468;7.33152330;2023-12-20T00:41:42;10.40;78.20
9544;DHT22;30418;51.45933468;7.33152330;2023-12-20T00:44:11;10.50;78.30
9544;DHT22;30418;51.45933468;7.33152330;2023-12-20T00:46:40;10.40;78.20
9544;DHT22;30418;51.45933468;7.33152330;2023-12-20T00:49:08;10.40;78.20
9544;DHT22;30418;51.45933468;7.33152330;2023-12-20T00:51:37;10.40;78.10
9544;DHT22;30418;51.45933468;7.33152330;2023-12-20T00:54:06;10.40;78.10
9544;DHT22;30418;51.45933468;7.33152330;2023-12-20T00:56:35;10.40;78.00
9544;DHT22;30418;51.45933468;7.33152330;2023-12-20T00:59:04;10.40;78.80
9544;DHT22;30418;51.45933468;7.33152330;2023-12-20T01:01:33;10.40;77.90
9544;DHT22;30418;51.45933468;7.33152330;2023-12-20T01:04:02;10.30;77.70
9544;DHT22;30418;51.45933468;7.33152330;2023-12-20T01:06:31;10.30;77.70
9544;DHT22;30418;51.45933468;7.33152330;2023-12-20T01:08:59;10.30;77.60
9544;DHT22;30418;51.45933468;7.33152330;2023-12-20T01:11:28;10.30;77.60
9544;DHT22;30418;51.45933468;7.33152330;2023-12-20T01:13:58;10.30;77.50
9544;DHT22;30418;51.45933468;7.33152330;2023-12-20T01:16:27;10.20;77.40
9544;DHT22;30418;51.45933468;7.33152330;2023-12-20T01:18:55;10.20;77.40
9544;DHT22;30418;51.45933468;7.33152330;2023-12-20T01:21:24;10.20;77.40
9544;DHT22;30418;51.45933468;7.33152330;2023-12-20T01:23:52;10.20;77.30
9544;DHT22;30418;51.45933468;7.33152330;2023-12-20T01:26:21;10.10;77.30
9544;DHT22;30418;51.45933468;7.33152330;2023-12-20T01:28:49;10.10;77.30
9544;DHT22;30418;51.45933468;7.33152330;2023-12-20T01:31:19;10.10;77.30
9544;DHT22;30418;51.45933468;7.33152330;2023-12-20T01:33:48;10.10;77.30
9544;DHT22;30418;51.45933468;7.33152330;2023-12-20T01:36:16;10.10;77.30
9544;DHT22;30418;51.45933468;7.33152330;2023-12-20T01:38:45;10.10;77.30
9544;DHT22;30418;51.45933468;7.33152330;2023-12-20T01:41:13;10.10;77.30
9544;DHT22;30418;51.45933468;7.33152330;2023-12-20T01:43:42;10.10;77.30
9544;DHT22;30418;51.45933468;7.33152330;2023-12-20T01:46:20;10.10;77.30
9544;DHT22;30418;51.45933468;7.33152330;2023-12-20T01:48:49;10.10;77.30
9544;DHT22;30418;51.45933468;7.33152330;2023-12-20T01:51:18;10.10;77.30
9544;DHT22;30418;51.45933468;7.33152330;2023-12-20T01:53:48;10.10;77.20
9544;DHT22;30418;51.45933468;7.33152330;2023-12-20T01:56:17;10.10;77.20
9544;DHT22;30418;51.45933468;7.33152330;2023-12-20T01:58:46;10.00;77.10
9544;DHT22;30418;51.45933468;7.33152330;2023-12-20T02:01:16;10.00;77.10
9544;DHT22;30418;51.45933468;7.33152330;2023-12-20T02:03:47;10.00;77.00
9544;DHT22;30418;51.45933468;7.33152330;2023-12-20T02:06:16;10.00;76.80
9544;DHT22;30418;51.45933468;7.33152330;2023-12-20T02:08:46;10.00;76.70
9544;DHT22;30418;51.45933468;7.33152330;2023-12-20T02:11:15;10.00;76.60
9544;DHT22;30418;51.45933468;7.33152330;2023-12-20T02:13:44;10.00;76.60
9544;DHT22;30418;51.45933468;7.33152330;2023-12-20T02:16:12;10.00;76.70
9544;DHT22;30418;51.45933468;7.33152330;2023-12-20T02:18:42;10.00;76.70
9544;DHT22;30418;51.45933468;7.33152330;2023-12-20T02:21:13;10.00;76.60
9544;DHT22;30418;51.45933468;7.33152330;2023-12-20T02:23:42;9.90;77.60
9544;DHT22;30418;51.45933468;7.33152330;2023-12-20T02:26:12;10.00;76.40
9544;DHT22;30418;51.45933468;7.33152330;2023-12-20T02:28:41;9.90;77.30
9544;DHT22;30418;51.45933468;7.33152330;2023-12-20T02:31:09;9.90;77.30
9544;DHT22;30418;51.45933468;7.33152330;2023-12-20T02:33:38;9.90;77.20
9544;DHT22;30418;51.45933468;7.33152330;2023-12-20T02:36:09;9.90;77.20
9544;DHT22;30418;51.45933468;7.33152330;2023-12-20T02:38:37;9.90;77.10
9544;DHT22;30418;51.45933468;7.33152330;2023-12-20T02:41:07;9.90;77.20
9544;DHT22;30418;51.45933468;7.33152330;2023-12-20T02:43:36;9.90;77.20
9544;DHT22;30418;51.45933468;7.33152330;2023-12-20T02:46:04;9.90;77.40
9544;DHT22;30418;51.45933468;7.33152330;2023-12-20T02:48:33;9.80;77.30
9544;DHT22;30418;51.45933468;7.33152330;2023-12-20T02:51:02;9.90;77.40
9544;DHT22;30418;51.45933468;7.33152330;2023-12-20T02:53:31;9.90;77.40
9544;DHT22;30418;51.45933468;7.33152330;2023-12-20T02:55:59;9.90;78.30
9544;DHT22;30418;51.45933468;7.33152330;2023-12-20T02:58:29;9.90;77.50
9544;DHT22;30418;51.45933468;7.33152330;2023-12-20T03:00:58;9.90;77.50
9544;DHT22;30418;51.45933468;7.33152330;2023-12-20T03:03:26;9.90;77.40
9544;DHT22;30418;51.45933468;7.33152330;2023-12-20T03:05:55;9.90;77.40
9544;DHT22;30418;51.45933468;7.33152330;2023-12-20T03:08:23;9.90;77.30
9544;DHT22;30418;51.45933468;7.33152330;2023-12-20T03:10:55;9.90;77.30
9544;DHT22;30418;51.45933468;7.33152330;2023-12-20T03:13:23;9.90;77.20
9544;DHT22;30418;51.45933468;7.33152330;2023-12-20T03:15:53;9.90;78.00
9544;DHT22;30418;51.45933468;7.33152330;2023-12-20T03:18:22;9.90;77.00
9544;DHT22;30418;51.45933468;7.33152330;2023-12-20T03:20:50;9.90;77.00
9544;DHT22;30418;51.45933468;7.33152330;2023-12-20T03:23:19;9.90;77.10
9544;DHT22;30418;51.45933468;7.33152330;2023-12-20T03:25:48;9.90;76.90
9544;DHT22;30418;51.45933468;7.33152330;2023-12-20T03:28:17;9.90;76.90
9544;DHT22;30418;51.45933468;7.33152330;2023-12-20T03:30:46;9.90;77.00
9544;DHT22;30418;51.45933468;7.33152330;2023-12-20T03:33:16;9.90;76.90
9544;DHT22;30418;51.45933468;7.33152330;2023-12-20T03:35:45;9.90;76.90
9544;DHT22;30418;51.45933468;7.33152330;2023-12-20T03:38:13;9.80;76.80
9544;DHT22;30418;51.45933468;7.33152330;2023-12-20T03:40:42;9.90;76.80
9544;DHT22;30418;51.45933468;7.33152330;2023-12-20T03:43:11;9.80;76.70
9544;DHT22;30418;51.45933468;7.33152330;2023-12-20T03:45:39;9.80;76.70
9544;DHT22;30418;51.45933468;7.33152330;2023-12-20T03:48:08;9.80;76.60
9544;DHT22;30418;51.45933468;7.33152330;2023-12-20T03:50:38;9.80;76.60
9544;DHT22;30418;51.45933468;7.33152330;2023-12-20T03:53:06;9.80;76.60
9544;DHT22;30418;51.45933468;7.33152330;2023-12-20T03:55:35;9.80;76.50
9544;DHT22;30418;51.45933468;7.33152330;2023-12-20T03:58:03;9.80;76.40
9544;DHT22;30418;51.45933468;7.33152330;2023-12-20T04:00:32;9.80;76.40
9544;DHT22;30418;51.45933468;7.33152330;2023-12-20T04:03:00;9.80;76.40
9544;DHT22;30418;51.45933468;7.33152330;2023-12-20T04:05:29;9.70;76.20
9544;DHT22;30418;51.45933468;7.33152330;2023-12-20T04:07:59;9.80;76.20
9544;DHT22;30418;51.45933468;7.33152330;2023-12-20T04:10:29;9.70;76.10
9544;DHT22;30418;51.45933468;7.33152330;2023-12-20T04:12:58;9.70;76.10
9544;DHT22;30418;51.45933468;7.33152330;2023-12-20T04:15:26;9.70;76.10
9544;DHT22;30418;51.45933468;7.33152330;2023-12-20T04:17:55;9.70;76.20
9544;DHT22;30418;51.45933468;7.33152330;2023-12-20T04:20:23;9.70;76.20
9544;DHT22;30418;51.45933468;7.33152330;2023-12-20T04:22:52;9.70;76.20
9544;DHT22;30418;51.45933468;7.33152330;2023-12-20T04:25:21;9.70;76.10
9544;DHT22;30418;51.45933468;7.33152330;2023-12-20T04:27:50;9.60;76.00
9544;DHT22;30418;51.45933468;7.33152330;2023-12-20T04:30:19;9.60;76.00
9544;DHT22;30418;51.45933468;7.33152330;2023-12-20T04:32:47;9.60;76.00
9544;DHT22;30418;51.45933468;7.33152330;2023-12-20T04:35:16;9.60;76.10
9544;DHT22;30418;51.45933468;7.33152330;2023-12-20T04:37:44;9.60;76.10
9544;DHT22;30418;51.45933468;7.33152330;2023-12-20T04:40:14;9.60;76.10
9544;DHT22;30418;51.45933468;7.33152330;2023-12-20T04:42:44;9.60;76.10
9544;DHT22;30418;51.45933468;7.33152330;2023-12-20T04:45:12;9.60;76.10
9544;DHT22;30418;51.45933468;7.33152330;2023-12-20T04:47:43;9.60;76.10
9544;DHT22;30418;51.45933468;7.33152330;2023-12-20T04:50:12;9.60;76.00
9544;DHT22;30418;51.45933468;7.33152330;2023-12-20T04:52:42;9.60;76.00
9544;DHT22;30418;51.45933468;7.33152330;2023-12-20T04:55:11;9.60;76.00
9544;DHT22;30418;51.45933468;7.33152330;2023-12-20T04:57:39;9.60;76.00
9544;DHT22;30418;51.45933468;7.33152330;2023-12-20T05:00:10;9.60;76.10
9544;DHT22;30418;51.45933468;7.33152330;2023-12-20T05:02:41;9.60;76.20
9544;DHT22;30418;51.45933468;7.33152330;2023-12-20T05:05:10;9.60;76.00
9544;DHT22;30418;51.45933468;7.33152330;2023-12-20T05:07:39;9.50;75.80
9544;DHT22;30418;51.45933468;7.33152330;2023-12-20T05:10:08;9.60;76.00
9544;DHT22;30418;51.45933468;7.33152330;2023-12-20T05:12:37;9.50;75.80
9544;DHT22;30418;51.45933468;7.33152330;2023-12-20T05:15:07;9.60;75.70
9544;DHT22;30418;51.45933468;7.33152330;2023-12-20T05:17:38;9.60;75.80
9544;DHT22;30418;51.45933468;7.33152330;2023-12-20T05:20:07;9.60;75.80
9544;DHT22;30418;51.45933468;7.33152330;2023-12-20T05:22:37;9.50;75.50
9544;DHT22;30418;51.45933468;7.33152330;2023-12-20T05:25:06;9.50;75.60
9544;DHT22;30418;51.45933468;7.33152330;2023-12-20T05:27:35;9.50;75.70
9544;DHT22;30418;51.45933468;7.33152330;2023-12-20T05:30:04;9.50;75.80
9544;DHT22;30418;51.45933468;7.33152330;2023-12-20T05:32:36;9.50;75.80
9544;DHT22;30418;51.45933468;7.33152330;2023-12-20T05:35:05;9.50;76.00
9544;DHT22;30418;51.45933468;7.33152330;2023-12-20T05:37:34;9.50;76.00
9544;DHT22;30418;51.45933468;7.33152330;2023-12-20T05:40:03;9.50;76.00
9544;DHT22;30418;51.45933468;7.33152330;2023-12-20T05:42:32;9.50;76.00
9544;DHT22;30418;51.45933468;7.33152330;2023-12-20T05:45:01;9.50;76.00
9544;DHT22;30418;51.45933468;7.33152330;2023-12-20T05:47:29;9.60;76.20
9544;DHT22;30418;51.45933468;7.33152330;2023-12-20T05:50:00;9.60;76.20
9544;DHT22;30418;51.45933468;7.33152330;2023-12-20T05:52:28;9.60;76.10
9544;DHT22;30418;51.45933468;7.33152330;2023-12-20T05:54:57;9.60;75.90
9544;DHT22;30418;51.45933468;7.33152330;2023-12-20T05:57:28;9.60;75.90
9544;DHT22;30418;51.45933468;7.33152330;2023-12-20T05:59:57;9.60;75.90
9544;DHT22;30418;51.45933468;7.33152330;2023-12-20T06:02:25;9.60;75.90
9544;DHT22;30418;51.45933468;7.33152330;2023-12-20T06:04:54;9.60;75.80
9544;DHT22;30418;51.45933468;7.33152330;2023-12-20T06:07:24;9.60;75.90
9544;DHT22;30418;51.45933468;7.33152330;2023-12-20T06:09:52;9.60;75.80
9544;DHT22;30418;51.45933468;7.33152330;2023-12-20T06:12:22;9.60;75.80
9544;DHT22;30418;51.45933468;7.33152330;2023-12-20T06:14:50;9.60;75.70
9544;DHT22;30418;51.45933468;7.33152330;2023-12-20T06:17:19;9.60;75.70
9544;DHT22;30418;51.45933468;7.33152330;2023-12-20T06:19:48;9.60;75.70
9544;DHT22;30418;51.45933468;7.33152330;2023-12-20T06:22:16;9.60;75.60
9544;DHT22;30418;51.45933468;7.33152330;2023-12-20T06:24:47;9.60;75.60
9544;DHT22;30418;51.45933468;7.33152330;2023-12-20T06:27:15;9.60;75.70
9544;DHT22;30418;51.45933468;7.33152330;2023-12-20T06:29:44;9.60;75.60
9544;DHT22;30418;51.45933468;7.33152330;2023-12-20T06:32:12;9.60;75.60
9544;DHT22;30418;51.45933468;7.33152330;2023-12-20T06:34:41;9.60;75.60
9544;DHT22;30418;51.45933468;7.33152330;2023-12-20T06:37:10;9.60;75.60
9544;DHT22;30418;51.45933468;7.33152330;2023-12-20T06:39:39;9.60;75.60
9544;DHT22;30418;51.45933468;7.33152330;2023-12-20T06:42:09;9.50;75.50
9544;DHT22;30418;51.45933468;7.33152330;2023-12-20T06:44:37;9.50;75.50
9544;DHT22;30418;51.45933468;7.33152330;2023-12-20T06:47:06;9.50;75.50
9544;DHT22;30418;51.45933468;7.33152330;2023-12-20T06:49:35;9.50;75.50
9544;DHT22;30418;51.45933468;7.33152330;2023-12-20T06:52:04;9.50;75.50
9544;DHT22;30418;51.45933468;7.33152330;2023-12-20T06:54:33;9.50;75.60
9544;DHT22;30418;51.45933468;7.33152330;2023-12-20T06:57:03;9.50;75.50
9544;DHT22;30418;51.45933468;7.33152330;2023-12-20T06:59:38;9.50;75.50
9544;DHT22;30418;51.45933468;7.33152330;2023-12-20T07:02:08;9.50;75.50
9544;DHT22;30418;51.45933468;7.33152330;2023-12-20T07:04:41;9.50;75.50
9544;DHT22;30418;51.45933468;7.33152330;2023-12-20T07:07:10;9.50;75.60
9544;DHT22;30418;51.45933468;7.33152330;2023-12-20T07:09:38;9.50;75.70
9544;DHT22;30418;51.45933468;7.33152330;2023-12-20T07:12:09;9.50;75.60
9544;DHT22;30418;51.45933468;7.33152330;2023-12-20T07:14:39;9.50;75.60
9544;DHT22;30418;51.45933468;7.33152330;2023-12-20T07:17:08;9.50;75.60
9544;DHT22;30418;51.45933468;7.33152330;2023-12-20T07:19:38;9.50;75.60
9544;DHT22;30418;51.45933468;7.33152330;2023-12-20T07:22:07;9.50;75.50
9544;DHT22;30418;51.45933468;7.33152330;2023-12-20T07:24:36;9.50;75.50
9544;DHT22;30418;51.45933468;7.33152330;2023-12-20T07:27:04;9.50;75.50
9544;DHT22;30418;51.45933468;7.33152330;2023-12-20T07:29:33;9.50;75.50
9544;DHT22;30418;51.45933468;7.33152330;2023-12-20T07:32:03;9.50;75.50
9544;DHT22;30418;51.45933468;7.33152330;2023-12-20T07:34:32;9.50;75.50
9544;DHT22;30418;51.45933468;7.33152330;2023-12-20T07:37:04;9.50;75.60
9544;DHT22;30418;51.45933468;7.33152330;2023-12-20T07:39:32;9.50;75.50
9544;DHT22;30418;51.45933468;7.33152330;2023-12-20T07:42:01;9.50;75.50
9544;DHT22;30418;51.45933468;7.33152330;2023-12-20T07:44:29;9.50;75.50
9544;DHT22;30418;51.45933468;7.33152330;2023-12-20T07:46:58;9.50;75.50
9544;DHT22;30418;51.45933468;7.33152330;2023-12-20T07:49:30;9.50;75.50
9544;DHT22;30418;51.45933468;7.33152330;2023-12-20T07:51:59;9.50;75.40
9544;DHT22;30418;51.45933468;7.33152330;2023-12-20T07:54:28;9.50;75.40
9544;DHT22;30418;51.45933468;7.33152330;2023-12-20T07:56:57;9.50;75.40
9544;DHT22;30418;51.45933468;7.33152330;2023-12-20T07:59:25;9.50;75.40
9544;DHT22;30418;51.45933468;7.33152330;2023-12-20T08:01:59;9.50;75.30
9544;DHT22;30418;51.45933468;7.33152330;2023-12-20T08:04:29;9.50;75.30
9544;DHT22;30418;51.45933468;7.33152330;2023-12-20T08:06:57;9.50;75.30
9544;DHT22;30418;51.45933468;7.33152330;2023-12-20T08:09:27;9.60;75.40
9544;DHT22;30418;51.45933468;7.33152330;2023-12-20T08:11:55;9.50;75.10
9544;DHT22;30418;51.45933468;7.33152330;2023-12-20T08:14:26;9.50;75.10
9544;DHT22;30418;51.45933468;7.33152330;2023-12-20T08:16:55;9.50;75.10
9544;DHT22;30418;51.45933468;7.33152330;2023-12-20T08:19:23;9.50;75.20
9544;DHT22;30418;51.45933468;7.33152330;2023-12-20T08:21:53;9.50;75.10
9544;DHT22;30418;51.45933468;7.33152330;2023-12-20T08:24:22;9.50;75.10
9544;DHT22;30418;51.45933468;7.33152330;2023-12-20T08:26:50;9.50;75.20
9544;DHT22;30418;51.45933468;7.33152330;2023-12-20T08:29:19;9.50;76.00
9544;DHT22;30418;51.45933468;7.33152330;2023-12-20T08:31:52;9.50;75.20
9544;DHT22;30418;51.45933468;7.33152330;2023-12-20T08:34:21;9.50;75.10
9544;DHT22;30418;51.45933468;7.33152330;2023-12-20T08:36:52;9.50;75.00
9544;DHT22;30418;51.45933468;7.33152330;2023-12-20T08:39:21;9.50;75.10
9544;DHT22;30418;51.45933468;7.33152330;2023-12-20T08:41:50;9.50;75.00
9544;DHT22;30418;51.45933468;7.33152330;2023-12-20T08:44:18;9.60;75.20
9544;DHT22;30418;51.45933468;7.33152330;2023-12-20T08:46:48;9.50;75.10
9544;DHT22;30418;51.45933468;7.33152330;2023-12-20T08:49:16;9.60;75.30
9544;DHT22;30418;51.45933468;7.33152330;2023-12-20T08:51:45;9.60;75.20
9544;DHT22;30418;51.45933468;7.33152330;2023-12-20T08:54:15;9.50;75.10
9544;DHT22;30418;51.45933468;7.33152330;2023-12-20T08:56:44;9.60;75.20
9544;DHT22;30418;51.45933468;7.33152330;2023-12-20T08:59:13;9.60;75.10
9544;DHT22;30418;51.45933468;7.33152330;2023-12-20T09:01:41;9.60;75.10
9544;DHT22;30418;51.45933468;7.33152330;2023-12-20T09:04:10;9.60;75.10
9544;DHT22;30418;51.45933468;7.33152330;2023-12-20T09:06:38;9.60;75.10
9544;DHT22;30418;51.45933468;7.33152330;2023-12-20T09:09:07;9.60;75.20
9544;DHT22;30418;51.45933468;7.33152330;2023-12-20T09:11:42;9.60;75.20
9544;DHT22;30418;51.45933468;7.33152330;2023-12-20T09:14:13;9.60;75.10
9544;DHT22;30418;51.45933468;7.33152330;2023-12-20T09:16:41;9.60;75.90
9544;DHT22;30418;51.45933468;7.33152330;2023-12-20T09:19:10;9.60;75.00
9544;DHT22;30418;51.45933468;7.33152330;2023-12-20T09:21:39;9.60;75.10
9544;DHT22;30418;51.45933468;7.33152330;2023-12-20T09:24:08;9.60;75.10
9544;DHT22;30418;51.45933468;7.33152330;2023-12-20T09:26:37;9.70;75.20
9544;DHT22;30418;51.45933468;7.33152330;2023-12-20T09:29:08;9.60;75.10
9544;DHT22;30418;51.45933468;7.33152330;2023-12-20T09:31:37;9.70;75.10
9544;DHT22;30418;51.45933468;7.33152330;2023-12-20T09:34:06;9.70;75.00
9544;DHT22;30418;51.45933468;7.33152330;2023-12-20T09:36:35;9.70;75.00
9544;DHT22;30418;51.45933468;7.33152330;2023-12-20T09:39:05;9.70;75.00
9544;DHT22;30418;51.45933468;7.33152330;2023-12-20T09:41:37;9.70;75.00
9544;DHT22;30418;51.45933468;7.33152330;2023-12-20T09:44:14;9.70;75.00
9544;DHT22;30418;51.45933468;7.33152330;2023-12-20T09:46:47;9.70;75.00
9544;DHT22;30418;51.45933468;7.33152330;2023-12-20T09:49:18;9.70;75.00
9544;DHT22;30418;51.45933468;7.33152330;2023-12-20T09:51:48;9.70;75.00
9544;DHT22;30418;51.45933468;7.33152330;2023-12-20T09:54:18;9.70;75.00
9544;DHT22;30418;51.45933468;7.33152330;2023-12-20T09:56:47;9.70;75.00
9544;DHT22;30418;51.45933468;7.33152330;2023-12-20T09:59:18;9.70;75.00
9544;DHT22;30418;51.45933468;7.33152330;2023-12-20T10:01:47;9.70;75.00
9544;DHT22;30418;51.45933468;7.33152330;2023-12-20T10:04:17;9.70;75.00
9544;DHT22;30418;51.45933468;7.33152330;2023-12-20T10:06:56;9.70;75.00
9544;DHT22;30418;51.45933468;7.33152330;2023-12-20T10:09:25;9.70;75.00
9544;DHT22;30418;51.45933468;7.33152330;2023-12-20T10:11:56;9.80;75.10
9544;DHT22;30418;51.45933468;7.33152330;2023-12-20T10:14:26;9.70;75.00
9544;DHT22;30418;51.45933468;7.33152330;2023-12-20T10:17:02;9.70;75.00
9544;DHT22;30418;51.45933468;7.33152330;2023-12-20T10:19:31;9.70;74.90
9544;DHT22;30418;51.45933468;7.33152330;2023-12-20T10:22:01;9.80;75.00
9544;DHT22;30418;51.45933468;7.33152330;2023-12-20T10:24:32;9.70;75.00
9544;DHT22;30418;51.45933468;7.33152330;2023-12-20T10:27:01;9.70;75.00
9544;DHT22;30418;51.45933468;7.33152330;2023-12-20T10:29:34;9.80;75.00
9544;DHT22;30418;51.45933468;7.33152330;2023-12-20T10:32:24;9.80;75.00
9544;DHT22;30418;51.45933468;7.33152330;2023-12-20T10:34:55;9.70;74.80
9544;DHT22;30418;51.45933468;7.33152330;2023-12-20T10:37:24;9.80;75.00
9544;DHT22;30418;51.45933468;7.33152330;2023-12-20T10:39:54;9.80;75.00
9544;DHT22;30418;51.45933468;7.33152330;2023-12-20T10:42:26;9.80;75.00
9544;DHT22;30418;51.45933468;7.33152330;2023-12-20T10:44:58;9.70;74.90
9544;DHT22;30418;51.45933468;7.33152330;2023-12-20T10:47:28;9.80;75.00
9544;DHT22;30418;51.45933468;7.33152330;2023-12-20T10:49:59;9.80;75.00
9544;DHT22;30418;51.45933468;7.33152330;2023-12-20T10:52:29;9.80;75.00
9544;DHT22;30418;51.45933468;7.33152330;2023-12-20T10:55:00;9.80;75.00
9544;DHT22;30418;51.45933468;7.33152330;2023-12-20T10:57:29;9.70;74.90
9544;DHT22;30418;51.45933468;7.33152330;2023-12-20T11:00:02;9.80;75.00
9544;DHT22;30418;51.45933468;7.33152330;2023-12-20T11:02:33;9.80;75.00
9544;DHT22;30418;51.45933468;7.33152330;2023-12-20T11:05:10;9.80;75.80
9544;DHT22;30418;51.45933468;7.33152330;2023-12-20T11:07:52;9.80;74.90
9544;DHT22;30418;51.45933468;7.33152330;2023-12-20T11:10:28;9.80;74.90
9544;DHT22;30418;51.45933468;7.33152330;2023-12-20T11:13:06;9.80;75.00
9544;DHT22;30418;51.45933468;7.33152330;2023-12-20T11:15:41;9.80;75.00
9544;DHT22;30418;51.45933468;7.33152330;2023-12-20T11:18:10;9.80;75.10
9544;DHT22;30418;51.45933468;7.33152330;2023-12-20T11:20:39;9.80;75.00
9544;DHT22;30418;51.45933468;7.33152330;2023-12-20T11:23:09;9.80;75.10
9544;DHT22;30418;51.45933468;7.33152330;2023-12-20T11:25:48;9.80;75.10
9544;DHT22;30418;51.45933468;7.33152330;2023-12-20T11:28:22;9.80;75.00
9544;DHT22;30418;51.45933468;7.33152330;2023-12-20T11:30:54;9.70;75.00
9544;DHT22;30418;51.45933468;7.33152330;2023-12-20T11:33:25;9.80;75.10
9544;DHT22;30418;51.45933468;7.33152330;2023-12-20T11:35:56;9.80;75.10
9544;DHT22;30418;51.45933468;7.33152330;2023-12-20T11:38:26;9.80;75.10
9544;DHT22;30418;51.45933468;7.33152330;2023-12-20T11:40:55;9.80;75.10
9544;DHT22;30418;51.45933468;7.33152330;2023-12-20T11:43:30;9.80;75.10
9544;DHT22;30418;51.45933468;7.33152330;2023-12-20T11:46:05;9.80;75.10
9544;DHT22;30418;51.45933468;7.33152330;2023-12-20T11:48:36;9.80;75.10
9544;DHT22;30418;51.45933468;7.33152330;2023-12-20T11:51:09;9.80;75.10
9544;DHT22;30418;51.45933468;7.33152330;2023-12-20T11:53:38;9.80;75.10
9544;DHT22;30418;51.45933468;7.33152330;2023-12-20T11:56:07;9.80;75.20
9544;DHT22;30418;51.45933468;7.33152330;2023-12-20T11:58:37;9.90;75.30
9544;DHT22;30418;51.45933468;7.33152330;2023-12-20T12:01:07;9.90;75.20
9544;DHT22;30418;51.45933468;7.33152330;2023-12-20T12:03:36;9.90;75.20
9544;DHT22;30418;51.45933468;7.33152330;2023-12-20T12:06:05;9.90;75.20
9544;DHT22;30418;51.45933468;7.33152330;2023-12-20T12:08:35;9.90;75.30
9544;DHT22;30418;51.45933468;7.33152330;2023-12-20T12:11:04;10.00;74.20
9544;DHT22;30418;51.45933468;7.33152330;2023-12-20T12:13:33;10.00;74.20
9544;DHT22;30418;51.45933468;7.33152330;2023-12-20T12:16:02;10.00;74.20
9544;DHT22;30418;51.45933468;7.33152330;2023-12-20T12:18:33;9.90;75.20
9544;DHT22;30418;51.45933468;7.33152330;2023-12-20T12:21:02;10.00;74.20
9544;DHT22;30418;51.45933468;7.33152330;2023-12-20T12:23:41;10.00;74.20
9544;DHT22;30418;51.45933468;7.33152330;2023-12-20T12:26:10;9.90;75.20
9544;DHT22;30418;51.45933468;7.33152330;2023-12-20T12:28:40;10.00;74.20
9544;DHT22;30418;51.45933468;7.33152330;2023-12-20T12:31:13;9.90;75.20
9544;DHT22;30418;51.45933468;7.33152330;2023-12-20T12:33:46;10.00;74.20
9544;DHT22;30418;51.45933468;7.33152330;2023-12-20T12:36:16;9.90;75.40
9544;DHT22;30418;51.45933468;7.33152330;2023-12-20T12:38:45;9.90;75.40
9544;DHT22;30418;51.45933468;7.33152330;2023-12-20T12:41:13;9.90;75.60
9544;DHT22;30418;51.45933468;7.33152330;2023-12-20T12:43:43;9.90;75.70
9544;DHT22;30418;51.45933468;7.33152330;2023-12-20T12:46:11;9.90;75.70
9544;DHT22;30418;51.45933468;7.33152330;2023-12-20T12:48:40;9.90;75.60
9544;DHT22;30418;51.45933468;7.33152330;2023-12-20T12:51:14;9.90;75.60
9544;DHT22;30418;51.45933468;7.33152330;2023-12-20T12:53:43;9.90;75.50
9544;DHT22;30418;51.45933468;7.33152330;2023-12-20T12:56:13;9.90;75.50
9544;DHT22;30418;51.45933468;7.33152330;2023-12-20T12:58:42;9.90;75.80
9544;DHT22;30418;51.45933468;7.33152330;2023-12-20T13:01:11;9.90;75.80
9544;DHT22;30418;51.45933468;7.33152330;2023-12-20T13:03:39;9.90;75.90
9544;DHT22;30418;51.45933468;7.33152330;2023-12-20T13:06:08;9.90;75.90
9544;DHT22;30418;51.45933468;7.33152330;2023-12-20T13:08:38;9.90;75.90
9544;DHT22;30418;51.45933468;7.33152330;2023-12-20T13:11:07;9.90;75.90
9544;DHT22;30418;51.45933468;7.33152330;2023-12-20T13:13:36;9.90;75.90
9544;DHT22;30418;51.45933468;7.33152330;2023-12-20T13:16:05;9.90;75.90
9544;DHT22;30418;51.45933468;7.33152330;2023-12-20T13:18:34;9.90;76.10
9544;DHT22;30418;51.45933468;7.33152330;2023-12-20T13:21:04;9.80;75.90
9544;DHT22;30418;51.45933468;7.33152330;2023-12-20T13:23:33;9.90;75.90
9544;DHT22;30418;51.45933468;7.33152330;2023-12-20T13:26:07;9.90;75.90
9544;DHT22;30418;51.45933468;7.33152330;2023-12-20T13:28:35;9.90;76.00
9544;DHT22;30418;51.45933468;7.33152330;2023-12-20T13:31:04;9.90;76.00
9544;DHT22;30418;51.45933468;7.33152330;2023-12-20T13:33:33;9.90;76.00
9544;DHT22;30418;51.45933468;7.33152330;2023-12-20T13:36:02;9.90;76.00
9544;DHT22;30418;51.45933468;7.33152330;2023-12-20T13:38:34;9.90;75.90
9544;DHT22;30418;51.45933468;7.33152330;2023-12-20T13:41:03;9.90;76.00
9544;DHT22;30418;51.45933468;7.33152330;2023-12-20T13:43:34;9.90;75.90
9544;DHT22;30418;51.45933468;7.33152330;2023-12-20T13:46:03;9.90;75.90
9544;DHT22;30418;51.45933468;7.33152330;2023-12-20T13:48:31;9.90;76.00
9544;DHT22;30418;51.45933468;7.33152330;2023-12-20T13:51:00;9.90;75.90
9544;DHT22;30418;51.45933468;7.33152330;2023-12-20T13:53:29;9.90;76.00
9544;DHT22;30418;51.45933468;7.33152330;2023-12-20T13:55:58;9.90;76.00
9544;DHT22;30418;51.45933468;7.33152330;2023-12-20T13:58:26;9.90;76.00